createdAt,value
2022-08-03T00:02:16.003Z,82.27
2022-08-03T00:04:42.721Z,82.48
2022-08-03T00:07:09.217Z,79.39
2022-08-03T00:09:36.506Z,77.80
2022-08-03T00:12:03.468Z,76.93
2022-08-03T00:14:30.856Z,78.58
2022-08-03T00:16:58.088Z,78.93
2022-08-03T00:19:24.688Z,80.96
2022-08-03T00:21:51.222Z,82.33
2022-08-03T00:24:17.812Z,79.84
2022-08-03T00:26:44.362Z,78.55
2022-08-03T00:29:11.434Z,77.52
2022-08-03T00:31:51.424Z,76.76
2022-08-03T00:34:36.307Z,77.88
2022-08-03T00:37:14.588Z,77.36
2022-08-03T00:39:45.858Z,78.13
2022-08-03T00:42:12.456Z,78.75
2022-08-03T00:44:41.079Z,78.39
2022-08-03T00:47:10.226Z,78.57
2022-08-03T00:49:41.450Z,79.25
2022-08-03T00:52:17.270Z,79.26
2022-08-03T00:54:43.891Z,76.82
2022-08-03T00:57:10.631Z,77.99
2022-08-03T00:59:44.673Z,77.99
2022-08-03T01:02:11.362Z,78.45
2022-08-03T01:04:37.937Z,79.32
2022-08-03T01:07:19.499Z,79.66
2022-08-03T01:09:52.749Z,79.86
2022-08-03T01:12:28.415Z,81.35
2022-08-03T01:15:28.758Z,79.99
2022-08-03T01:18:20.632Z,81.01
2022-08-03T01:20:55.824Z,79.75
2022-08-03T01:23:54.307Z,80.41
2022-08-03T01:26:42.875Z,81.64
2022-08-03T01:29:12.181Z,80.54
2022-08-03T01:32:58.773Z,81.32
2022-08-03T01:34:47.063Z,80.34
2022-08-03T01:37:19.100Z,79.53
2022-08-03T01:39:46.403Z,79.29
2022-08-03T01:42:14.968Z,76.96
2022-08-03T01:44:45.062Z,75.80
2022-08-03T01:47:12.884Z,74.83
2022-08-03T01:49:43.179Z,76.00
2022-08-03T01:52:11.480Z,75.52
2022-08-03T01:54:43.332Z,74.11
2022-08-03T01:57:10.277Z,73.94
2022-08-03T01:59:38.953Z,72.13
2022-08-03T02:02:31.800Z,72.63
2022-08-03T02:04:57.723Z,71.80
2022-08-03T02:07:26.887Z,71.79
2022-08-03T02:09:55.830Z,71.16
2022-08-03T02:12:25.105Z,71.34
2022-08-03T02:14:51.994Z,71.41
2022-08-03T02:17:39.070Z,70.67
2022-08-03T02:20:07.387Z,69.51
2022-08-03T02:22:34.926Z,68.80
2022-08-03T02:25:01.839Z,69.08
2022-08-03T02:27:32.116Z,68.85
2022-08-03T02:30:09.917Z,68.95
2022-08-03T02:32:40.344Z,69.02
2022-08-03T02:35:11.483Z,68.11
2022-08-03T02:37:45.028Z,67.80
2022-08-03T02:40:19.225Z,67.25
2022-08-03T02:42:48.602Z,67.38
2022-08-03T02:45:18.358Z,68.19
2022-08-03T02:47:54.320Z,68.34
2022-08-03T02:50:22.997Z,67.63
2022-08-03T02:52:51.128Z,68.40
2022-08-03T02:55:19.691Z,67.90
2022-08-03T02:57:47.707Z,66.99
2022-08-03T03:00:27.628Z,66.56
2022-08-03T03:02:58.381Z,65.62
2022-08-03T03:05:55.376Z,68.10
2022-08-03T03:08:18.549Z,68.45
2022-08-03T03:10:48.826Z,70.44
2022-08-03T03:13:21.125Z,72.08
2022-08-03T03:15:48.565Z,73.48
2022-08-03T03:18:22.084Z,71.99
2022-08-03T03:20:51.687Z,72.49
2022-08-03T03:23:22.805Z,73.67
2022-08-03T03:25:50.329Z,72.28
2022-08-03T03:28:17.413Z,73.87
2022-08-03T03:30:44.387Z,74.44
2022-08-03T03:33:12.047Z,75.59
2022-08-03T03:35:40.148Z,76.36
2022-08-03T03:38:09.269Z,75.46
2022-08-03T03:40:36.807Z,76.91
2022-08-03T03:43:07.235Z,76.73
2022-08-03T03:45:35.144Z,77.41
2022-08-03T03:48:04.143Z,77.38
2022-08-03T03:50:35.479Z,76.75
2022-08-03T03:53:03.525Z,77.86
2022-08-03T03:55:30.595Z,78.34
2022-08-03T03:57:57.185Z,77.75
2022-08-03T04:00:23.887Z,77.75
2022-08-03T04:02:50.414Z,78.29
2022-08-03T04:05:35.487Z,79.10
2022-08-03T04:08:24.957Z,78.77
2022-08-03T04:11:35.391Z,78.99
2022-08-03T04:14:04.698Z,79.01
2022-08-03T04:16:35.187Z,79.41
2022-08-03T04:19:08.193Z,79.97
2022-08-03T04:21:37.450Z,79.85
2022-08-03T04:24:07.515Z,80.76
2022-08-03T04:26:39.506Z,80.96
2022-08-03T04:29:07.907Z,81.67
2022-08-03T04:31:36.786Z,81.54
2022-08-03T04:34:04.355Z,81.47
2022-08-03T04:36:36.730Z,82.28
2022-08-03T04:39:16.235Z,82.00
2022-08-03T04:42:07.666Z,84.06
2022-08-03T04:44:35.708Z,83.62
2022-08-03T04:47:02.443Z,84.31
2022-08-03T04:49:31.053Z,84.44
2022-08-03T04:51:58.433Z,83.42
2022-08-03T04:54:25.069Z,84.96
2022-08-03T04:56:51.557Z,83.88
2022-08-03T04:59:18.118Z,84.00
2022-08-03T05:01:44.771Z,83.97
2022-08-03T05:04:11.384Z,84.07
2022-08-03T05:06:39.801Z,84.92
2022-08-03T05:09:14.981Z,84.38
2022-08-03T05:12:01.538Z,84.15
2022-08-03T05:14:28.480Z,81.11
2022-08-03T05:16:55.061Z,78.88
2022-08-03T05:19:21.645Z,78.24
2022-08-03T05:21:51.910Z,77.96
2022-08-03T05:24:19.280Z,78.55
2022-08-03T05:26:45.818Z,77.75
2022-08-03T05:29:12.388Z,79.49
2022-08-03T05:31:38.915Z,80.88
2022-08-03T05:34:05.567Z,81.13
2022-08-03T05:36:32.590Z,81.41
2022-08-03T05:39:02.616Z,81.60
2022-08-03T05:41:37.151Z,80.82
2022-08-03T05:44:04.493Z,79.78
2022-08-03T05:46:31.094Z,79.71
2022-08-03T05:48:57.697Z,80.73
2022-08-03T05:51:24.353Z,81.55
2022-08-03T05:53:50.986Z,83.00
2022-08-03T05:56:17.556Z,82.19
2022-08-03T05:58:45.925Z,82.13
2022-08-03T06:01:12.714Z,83.19
2022-08-03T06:03:39.368Z,83.17
2022-08-03T06:06:05.998Z,82.81
2022-08-03T06:08:32.709Z,82.65
2022-08-03T06:10:59.284Z,82.45
2022-08-03T06:13:25.831Z,82.81
2022-08-03T06:15:52.359Z,83.43
2022-08-03T06:18:19.070Z,82.61
2022-08-03T06:20:45.567Z,79.86
2022-08-03T06:23:16.097Z,78.82
2022-08-03T06:25:44.361Z,76.99
2022-08-03T06:28:18.975Z,75.61
2022-08-03T06:30:50.722Z,73.47
2022-08-03T06:33:17.312Z,74.11
2022-08-03T06:35:45.229Z,74.03
2022-08-03T06:38:15.130Z,74.71
2022-08-03T06:40:41.815Z,73.07
2022-08-03T06:43:12.329Z,72.69
2022-08-03T06:45:39.747Z,73.34
2022-08-03T06:48:08.303Z,73.86
2022-08-03T06:50:36.550Z,71.89
2022-08-03T06:53:04.566Z,67.97
2022-08-03T06:55:32.356Z,63.89
2022-08-03T06:58:03.107Z,62.22
2022-08-03T07:00:31.007Z,60.00
2022-08-03T07:02:58.580Z,59.63
2022-08-03T07:05:25.606Z,60.01
2022-08-03T07:07:56.837Z,60.07
2022-08-03T07:10:23.592Z,59.41
2022-08-03T07:12:55.744Z,58.29
2022-08-03T07:15:54.656Z,57.80
2022-08-03T07:18:10.148Z,56.94
2022-08-03T07:20:36.762Z,55.04
2022-08-03T07:23:03.375Z,54.45
2022-08-03T07:25:29.864Z,52.48
2022-08-03T07:27:56.500Z,52.38
2022-08-03T07:30:23.528Z,51.56
2022-08-03T07:32:50.868Z,51.28
2022-08-03T07:35:25.032Z,50.97
2022-08-03T07:37:54.524Z,50.54
2022-08-03T07:40:22.049Z,51.18
2022-08-03T07:42:53.315Z,51.02
2022-08-03T07:45:23.268Z,49.53
2022-08-03T07:47:54.268Z,49.50
2022-08-03T07:50:21.956Z,49.25
2022-08-03T07:52:49.561Z,49.13
2022-08-03T07:55:17.933Z,48.89
2022-08-03T07:57:44.620Z,47.99
2022-08-03T08:00:19.520Z,46.88
2022-08-03T08:02:46.426Z,48.48
2022-08-03T08:05:13.197Z,47.48
2022-08-03T08:07:40.492Z,46.00
2022-08-03T08:10:08.725Z,45.52
2022-08-03T08:12:35.981Z,45.95
2022-08-03T08:15:03.837Z,44.98
2022-08-03T08:17:30.419Z,45.43
2022-08-03T08:19:57.009Z,44.23
2022-08-03T08:22:29.889Z,43.62
2022-08-03T08:24:58.310Z,44.10
2022-08-03T08:27:25.019Z,43.45
2022-08-03T08:29:54.180Z,42.12
2022-08-03T08:32:21.920Z,43.25
2022-08-03T08:34:48.431Z,42.62
2022-08-03T08:37:15.206Z,42.71
2022-08-03T08:39:44.548Z,41.79
2022-08-03T08:42:11.150Z,41.87
2022-08-03T08:44:37.823Z,40.85
2022-08-03T08:47:04.819Z,41.48
2022-08-03T08:49:35.059Z,41.28
2022-08-03T08:52:29.481Z,41.25
2022-08-03T08:55:00.152Z,41.24
2022-08-03T08:57:42.262Z,41.30
2022-08-03T09:00:15.238Z,41.29
2022-08-03T09:02:43.462Z,40.80
2022-08-03T09:05:14.797Z,40.80
2022-08-03T09:07:45.747Z,40.61
2022-08-03T09:10:14.524Z,40.61
2022-08-03T09:12:46.237Z,39.56
2022-08-03T09:15:28.202Z,40.88
2022-08-03T09:17:57.287Z,38.54
2022-08-03T09:20:26.417Z,38.49
2022-08-03T09:23:00.294Z,39.65
2022-08-03T09:25:43.344Z,40.02
2022-08-03T09:28:12.480Z,39.38
2022-08-03T09:30:44.854Z,39.31
2022-08-03T09:33:16.477Z,40.05
2022-08-03T09:35:53.706Z,40.11
2022-08-03T09:38:28.062Z,39.84
2022-08-03T09:41:00.071Z,39.58
2022-08-03T09:43:28.066Z,40.48
2022-08-03T09:46:04.118Z,38.89
2022-08-03T09:48:32.532Z,38.72
2022-08-03T09:51:13.026Z,38.57
2022-08-03T09:53:59.007Z,38.15
2022-08-03T09:56:39.063Z,37.72
2022-08-03T09:59:05.803Z,38.48
2022-08-03T10:01:34.693Z,38.20
2022-08-03T10:04:04.322Z,37.33
2022-08-03T10:06:31.417Z,36.94
2022-08-03T10:09:15.512Z,39.06
2022-08-03T10:11:43.872Z,38.09
2022-08-03T10:14:19.068Z,38.51
2022-08-03T10:16:47.664Z,37.57
2022-08-03T10:19:15.531Z,38.35
2022-08-03T10:21:49.418Z,37.41
2022-08-03T10:24:21.015Z,38.06
2022-08-03T10:26:49.720Z,37.50
2022-08-03T10:29:24.751Z,37.42
2022-08-03T10:31:58.073Z,38.12
2022-08-03T10:34:27.191Z,36.56
2022-08-03T10:36:58.211Z,37.11
2022-08-03T10:39:29.034Z,37.72
2022-08-03T10:41:58.704Z,36.87
2022-08-03T10:44:33.710Z,37.67
2022-08-03T10:47:01.533Z,37.73
2022-08-03T10:49:34.697Z,37.26
2022-08-03T10:52:13.183Z,36.64
2022-08-03T10:55:10.093Z,37.19
2022-08-03T10:57:45.858Z,36.88
2022-08-03T11:00:18.410Z,36.24
2022-08-03T11:03:11.391Z,37.17
2022-08-03T11:05:40.987Z,37.80
2022-08-03T11:08:30.899Z,36.71
2022-08-03T11:11:26.155Z,36.48
2022-08-03T11:14:12.788Z,37.01
2022-08-03T11:16:42.263Z,36.38
2022-08-03T11:19:11.029Z,36.64
2022-08-03T11:21:50.247Z,35.92
2022-08-03T11:24:41.357Z,35.83
2022-08-03T11:27:21.431Z,37.26
2022-08-03T11:30:08.268Z,37.04
2022-08-03T11:32:37.752Z,36.59
2022-08-03T11:35:26.520Z,36.61
2022-08-03T11:38:03.136Z,35.95
2022-08-03T11:40:47.042Z,36.47
2022-08-03T11:43:22.686Z,35.97
2022-08-03T11:45:57.511Z,35.64
2022-08-03T11:48:27.843Z,36.20
2022-08-03T11:50:54.682Z,35.66
2022-08-03T11:53:21.246Z,36.00
2022-08-03T11:55:53.131Z,35.03
2022-08-03T11:59:13.240Z,35.43
2022-08-03T12:01:12.347Z,35.23
2022-08-03T12:03:39.060Z,35.07
2022-08-03T12:06:12.681Z,34.43
2022-08-03T12:08:40.601Z,34.95
2022-08-03T12:11:09.343Z,35.24
2022-08-03T12:14:45.121Z,37.88
2022-08-03T12:16:37.787Z,37.76
2022-08-03T12:19:06.700Z,37.40
2022-08-03T12:21:33.407Z,35.88
2022-08-03T12:24:04.764Z,35.04
2022-08-03T12:26:57.224Z,35.79
2022-08-03T12:29:26.288Z,34.44
2022-08-03T12:31:52.871Z,35.20
2022-08-03T12:34:19.698Z,34.28
2022-08-03T12:36:56.291Z,35.63
2022-08-03T12:39:24.898Z,35.95
2022-08-03T12:41:55.695Z,35.00
2022-08-03T12:44:33.768Z,34.21
2022-08-03T12:47:02.459Z,34.64
2022-08-03T12:49:30.419Z,34.95
2022-08-03T12:52:05.257Z,35.58
2022-08-03T12:54:35.917Z,35.47
2022-08-03T12:57:11.133Z,34.27
2022-08-03T12:59:56.015Z,35.16
2022-08-03T13:02:25.070Z,35.34
2022-08-03T13:04:54.127Z,33.98
2022-08-03T13:07:21.853Z,34.33
2022-08-03T13:09:53.014Z,33.46
2022-08-03T13:12:21.619Z,34.98
2022-08-03T13:14:50.832Z,35.36
2022-08-03T13:17:18.044Z,34.04
2022-08-03T13:19:46.363Z,34.53
2022-08-03T13:22:17.459Z,35.38
2022-08-03T13:24:45.714Z,35.33
2022-08-03T13:28:02.665Z,34.59
2022-08-03T13:30:00.012Z,34.42
2022-08-03T13:32:26.560Z,34.94
2022-08-03T13:34:53.259Z,35.12
2022-08-03T13:37:20.082Z,35.04
2022-08-03T13:39:57.645Z,35.19
2022-08-03T13:42:26.645Z,35.09
2022-08-03T13:44:53.261Z,34.16
2022-08-03T13:47:20.598Z,34.69
2022-08-03T13:49:59.421Z,36.93
2022-08-03T13:52:27.944Z,36.55
2022-08-03T13:54:54.591Z,37.60
2022-08-03T13:58:04.488Z,34.33
2022-08-03T14:00:08.583Z,33.78
2022-08-03T14:02:35.166Z,33.93
2022-08-03T14:05:01.717Z,32.86
2022-08-03T14:07:28.246Z,34.37
2022-08-03T14:09:58.194Z,33.84
2022-08-03T14:12:24.729Z,34.28
2022-08-03T14:14:51.235Z,35.01
2022-08-03T14:17:18.068Z,33.36
2022-08-03T14:19:53.561Z,35.38
2022-08-03T14:22:21.138Z,34.24
2022-08-03T14:24:47.697Z,35.03
2022-08-03T14:27:16.350Z,36.45
2022-08-03T14:29:42.910Z,34.50
2022-08-03T14:32:12.899Z,34.08
2022-08-03T14:34:40.547Z,34.58
2022-08-03T14:37:07.101Z,34.76
2022-08-03T14:42:20.463Z,37.18
2022-08-03T14:44:48.033Z,37.85
2022-08-03T14:47:14.789Z,35.02
2022-08-03T14:50:37.901Z,34.95
2022-08-03T14:52:28.627Z,35.87
2022-08-03T14:54:55.210Z,34.79
2022-08-03T14:57:22.104Z,34.54
2022-08-03T14:59:56.851Z,34.36
2022-08-03T15:02:24.416Z,34.61
2022-08-03T15:04:51.487Z,34.76
2022-08-03T15:07:18.369Z,34.30
2022-08-03T15:09:45.107Z,35.26
2022-08-03T15:12:11.668Z,34.64
2022-08-03T15:14:39.094Z,34.00
2022-08-03T15:17:06.236Z,35.11
2022-08-03T15:20:03.461Z,36.14
2022-08-03T15:22:20.736Z,37.43
2022-08-03T15:24:56.172Z,38.76
2022-08-03T15:27:23.278Z,37.16
2022-08-03T15:30:05.159Z,35.26
2022-08-03T15:32:33.841Z,35.25
2022-08-03T15:35:00.681Z,37.90
2022-08-03T15:37:27.720Z,37.07
2022-08-03T15:39:59.537Z,36.26
2022-08-03T15:42:28.537Z,36.18
2022-08-03T15:44:55.209Z,35.71
2022-08-03T15:47:22.135Z,35.63
2022-08-03T15:49:48.908Z,35.67
2022-08-03T15:52:15.476Z,35.50
2022-08-03T15:54:42.293Z,35.41
2022-08-03T15:57:08.819Z,34.53
2022-08-03T15:59:35.374Z,34.71
2022-08-03T16:02:02.083Z,34.34
2022-08-03T16:04:28.834Z,34.62
2022-08-03T16:06:55.388Z,35.70
2022-08-03T16:09:24.121Z,34.91
2022-08-03T16:12:15.695Z,35.04
2022-08-03T16:14:53.419Z,35.28
2022-08-03T16:17:21.616Z,34.28
2022-08-03T16:19:48.575Z,35.68
2022-08-03T16:22:17.435Z,35.67
2022-08-03T16:24:46.897Z,35.87
2022-08-03T16:27:36.667Z,35.93
2022-08-03T16:30:00.050Z,35.73
2022-08-03T16:32:26.552Z,35.30
2022-08-03T16:34:53.254Z,36.02
2022-08-03T16:37:38.030Z,39.55
2022-08-03T16:40:17.664Z,37.73
2022-08-03T16:42:48.825Z,37.54
2022-08-03T16:45:15.412Z,37.41
2022-08-03T16:47:42.069Z,40.01
2022-08-03T16:50:15.939Z,38.09
2022-08-03T16:52:47.677Z,38.75
2022-08-03T16:55:15.998Z,38.95
2022-08-03T16:58:03.754Z,38.32
2022-08-03T17:00:33.386Z,38.30
2022-08-03T17:03:04.354Z,40.24
2022-08-03T17:05:50.807Z,39.17
2022-08-03T17:08:26.928Z,38.46
2022-08-03T17:10:54.431Z,39.88
2022-08-03T17:13:22.470Z,41.22
2022-08-03T17:16:00.942Z,41.61
2022-08-03T17:18:37.666Z,42.21
2022-08-03T17:21:10.157Z,42.33
2022-08-03T17:23:44.642Z,42.00
2022-08-03T17:26:21.056Z,42.11
2022-08-03T17:28:57.499Z,41.09
2022-08-03T17:31:31.234Z,43.16
2022-08-03T17:34:01.418Z,42.74
2022-08-03T17:36:47.656Z,43.29
2022-08-03T17:39:16.804Z,44.36
2022-08-03T17:41:50.133Z,43.60
2022-08-03T17:44:28.919Z,43.51
2022-08-03T17:46:59.840Z,44.88
2022-08-03T17:49:27.868Z,45.23
2022-08-03T17:52:02.988Z,47.26
2022-08-03T17:54:29.889Z,47.38
2022-08-03T17:57:22.417Z,47.67
2022-08-03T17:59:56.075Z,47.41
2022-08-03T18:03:12.472Z,45.51
2022-08-03T18:06:11.499Z,45.11
2022-08-03T18:08:33.711Z,45.26
2022-08-03T18:11:14.811Z,44.94
2022-08-03T18:14:16.501Z,45.07
2022-08-03T18:16:56.385Z,44.80
2022-08-03T18:20:02.610Z,50.19
2022-08-03T18:22:13.605Z,51.26
2022-08-03T18:24:42.188Z,52.17
2022-08-03T18:27:10.883Z,54.23
2022-08-03T18:29:41.558Z,54.24
2022-08-03T18:32:25.187Z,53.52
2022-08-03T18:34:55.893Z,52.20
2022-08-03T18:37:26.202Z,51.11
2022-08-03T18:39:57.943Z,51.17
2022-08-03T18:42:26.357Z,51.12
2022-08-03T18:44:56.491Z,51.24
2022-08-03T18:47:23.343Z,51.00
2022-08-03T18:50:13.413Z,50.85
2022-08-03T18:53:16.551Z,51.24
2022-08-03T18:56:02.171Z,53.57
2022-08-03T18:59:02.531Z,52.82
2022-08-03T19:02:00.496Z,53.25
2022-08-03T19:04:46.524Z,53.18
2022-08-03T19:07:22.272Z,57.39
2022-08-03T19:10:11.551Z,54.09
2022-08-03T19:12:48.837Z,55.45
2022-08-03T19:15:15.898Z,54.79
2022-08-03T19:17:50.170Z,54.38
2022-08-03T19:20:21.955Z,54.66
2022-08-03T19:22:51.168Z,53.82
2022-08-03T19:25:18.936Z,54.47
2022-08-03T19:27:49.673Z,54.52
2022-08-03T19:30:39.526Z,53.69
2022-08-03T19:33:14.572Z,53.34
2022-08-03T19:35:49.722Z,59.14
2022-08-03T19:38:28.428Z,61.79
2022-08-03T19:41:02.292Z,62.25
2022-08-03T19:43:52.809Z,61.56
2022-08-03T19:49:16.806Z,58.39
2022-08-03T19:52:01.083Z,58.09
2022-08-03T19:54:39.563Z,57.35
2022-08-03T19:57:24.364Z,57.66
2022-08-03T19:59:55.439Z,57.72
2022-08-03T20:02:27.963Z,57.00
2022-08-03T20:05:00.529Z,57.51
2022-08-03T20:07:30.720Z,56.85
2022-08-03T20:09:59.534Z,56.84
2022-08-03T20:12:29.294Z,56.76
2022-08-03T20:14:57.352Z,58.01
2022-08-03T20:17:54.849Z,58.13
2022-08-03T20:20:11.981Z,57.08
2022-08-03T20:22:45.601Z,57.00
2022-08-03T20:25:16.335Z,57.59
2022-08-03T20:28:08.111Z,58.57
2022-08-03T20:30:38.429Z,58.35
2022-08-03T20:33:09.175Z,58.06
2022-08-03T20:35:35.783Z,60.23
2022-08-03T20:38:03.476Z,61.10
2022-08-03T20:40:30.015Z,65.67
2022-08-03T20:42:56.521Z,66.49
2022-08-03T20:45:58.270Z,65.64
2022-08-03T20:48:10.351Z,66.09
2022-08-03T20:50:38.659Z,64.20
2022-08-03T20:53:09.994Z,64.85
2022-08-03T20:55:48.159Z,67.06
2022-08-03T20:58:25.853Z,65.19
2022-08-03T21:00:54.369Z,64.95
2022-08-03T21:03:20.910Z,64.64
2022-08-03T21:05:51.857Z,65.40
2022-08-03T21:08:25.560Z,65.82
2022-08-03T21:10:56.411Z,65.17
2022-08-03T21:13:09.087Z,58.58
2022-08-03T21:13:56.363Z,63.38
2022-08-03T21:16:26.915Z,64.74
2022-08-03T21:18:54.485Z,63.21
2022-08-03T21:21:23.155Z,61.72
2022-08-03T21:23:53.325Z,62.50
2022-08-03T21:26:24.609Z,62.44
2022-08-03T21:28:53.918Z,61.79
2022-08-03T21:31:24.580Z,63.40
2022-08-03T21:33:57.537Z,61.85
2022-08-03T21:36:27.601Z,62.87
2022-08-03T21:38:57.308Z,61.89
2022-08-03T21:41:26.452Z,63.41
2022-08-03T21:43:55.922Z,61.79
2022-08-03T21:46:23.520Z,61.82
2022-08-03T21:48:55.978Z,61.40
2022-08-03T21:51:28.764Z,60.70
2022-08-03T21:54:02.395Z,60.76
2022-08-03T21:56:37.141Z,61.25
2022-08-03T21:59:06.986Z,60.80
2022-08-03T22:01:38.127Z,60.97
2022-08-03T22:04:06.861Z,61.07
2022-08-03T22:06:42.258Z,61.48
2022-08-03T22:09:09.146Z,61.90
2022-08-03T22:11:37.405Z,61.66
2022-08-03T22:14:04.767Z,62.32
2022-08-03T22:16:31.701Z,62.03
2022-08-03T22:18:58.312Z,61.81
2022-08-03T22:21:35.872Z,61.60
2022-08-03T22:24:05.310Z,60.94
2022-08-03T22:26:59.588Z,61.11
2022-08-03T22:29:26.183Z,60.70
2022-08-03T22:31:58.916Z,61.01
2022-08-03T22:34:27.284Z,60.05
2022-08-03T22:37:00.831Z,60.08
2022-08-03T22:39:28.993Z,60.18
2022-08-03T22:41:59.038Z,60.37
2022-08-03T22:44:31.322Z,60.65
2022-08-03T22:46:58.426Z,60.33
2022-08-03T22:49:27.992Z,60.05
2022-08-03T22:51:55.317Z,60.32
2022-08-03T22:54:23.552Z,60.28
2022-08-03T22:56:51.107Z,61.87
2022-08-03T22:59:40.633Z,62.51
2022-08-03T23:02:15.175Z,60.92
2022-08-03T23:04:53.144Z,60.55
2022-08-03T23:07:22.855Z,60.31
2022-08-03T23:09:49.674Z,59.88
2022-08-03T23:12:20.209Z,60.01
2022-08-03T23:14:53.647Z,60.25
2022-08-03T23:17:22.551Z,60.63
2022-08-03T23:19:52.163Z,60.39
2022-08-03T23:22:30.024Z,60.57
2022-08-03T23:24:58.599Z,60.63
2022-08-03T23:27:27.318Z,60.78
2022-08-03T23:29:54.298Z,60.39
2022-08-03T23:32:21.048Z,60.85
2022-08-03T23:35:07.607Z,61.00
2022-08-03T23:38:21.316Z,60.42
2022-08-03T23:40:28.873Z,61.53
2022-08-03T23:42:57.133Z,62.03
2022-08-03T23:45:27.601Z,61.62
2022-08-03T23:47:54.783Z,61.61
2022-08-03T23:50:21.666Z,61.71
2022-08-03T23:53:16.192Z,61.81
2022-08-03T23:56:12.669Z,61.69
2022-08-03T23:59:06.051Z,61.83
